sensor_id;sensor_type;location;lat;lon;timestamp;P1;durP1;ratioP1;P2;durP2;ratioP2
62580;SDS011;48640;48.770;9.148;2023-02-28T00:00:50;5.00;;;2.70;;
62580;SDS011;48640;48.770;9.148;2023-02-28T00:03:17;6.60;;;2.67;;
62580;SDS011;48640;48.770;9.148;2023-02-28T00:05:43;4.07;;;2.23;;
62580;SDS011;48640;48.770;9.148;2023-02-28T00:08:10;5.07;;;2.47;;
62580;SDS011;48640;48.770;9.148;2023-02-28T00:10:38;9.10;;;2.80;;
62580;SDS011;48640;48.770;9.148;2023-02-28T00:13:05;4.17;;;2.23;;
62580;SDS011;48640;48.770;9.148;2023-02-28T00:15:34;5.22;;;2.20;;
62580;SDS011;48640;48.770;9.148;2023-02-28T00:18:01;5.23;;;2.73;;
62580;SDS011;48640;48.770;9.148;2023-02-28T00:20:28;4.07;;;2.43;;
62580;SDS011;48640;48.770;9.148;2023-02-28T00:22:55;4.57;;;2.33;;
62580;SDS011;48640;48.770;9.148;2023-02-28T00:25:23;4.63;;;2.43;;
62580;SDS011;48640;48.770;9.148;2023-02-28T00:27:50;4.73;;;2.00;;
62580;SDS011;48640;48.770;9.148;2023-02-28T00:30:18;5.57;;;2.30;;
62580;SDS011;48640;48.770;9.148;2023-02-28T00:32:47;4.28;;;2.10;;
62580;SDS011;48640;48.770;9.148;2023-02-28T00:35:14;3.87;;;2.10;;
62580;SDS011;48640;48.770;9.148;2023-02-28T00:37:41;4.40;;;2.13;;
62580;SDS011;48640;48.770;9.148;2023-02-28T00:40:09;6.27;;;3.00;;
62580;SDS011;48640;48.770;9.148;2023-02-28T00:42:37;4.60;;;2.50;;
62580;SDS011;48640;48.770;9.148;2023-02-28T00:45:04;5.83;;;2.83;;
62580;SDS011;48640;48.770;9.148;2023-02-28T00:47:33;4.37;;;2.20;;
62580;SDS011;48640;48.770;9.148;2023-02-28T00:50:01;4.73;;;2.47;;
62580;SDS011;48640;48.770;9.148;2023-02-28T00:52:28;4.57;;;2.67;;
62580;SDS011;48640;48.770;9.148;2023-02-28T00:54:55;4.87;;;3.20;;
62580;SDS011;48640;48.770;9.148;2023-02-28T00:57:21;4.53;;;2.40;;
62580;SDS011;48640;48.770;9.148;2023-02-28T00:59:48;4.97;;;2.30;;
62580;SDS011;48640;48.770;9.148;2023-02-28T01:02:15;4.80;;;2.70;;
62580;SDS011;48640;48.770;9.148;2023-02-28T01:04:43;5.07;;;2.47;;
62580;SDS011;48640;48.770;9.148;2023-02-28T01:07:11;5.83;;;2.97;;
62580;SDS011;48640;48.770;9.148;2023-02-28T01:09:38;5.10;;;2.50;;
62580;SDS011;48640;48.770;9.148;2023-02-28T01:12:06;4.90;;;2.40;;
62580;SDS011;48640;48.770;9.148;2023-02-28T01:14:33;4.40;;;2.23;;
62580;SDS011;48640;48.770;9.148;2023-02-28T01:17:00;4.57;;;2.33;;
62580;SDS011;48640;48.770;9.148;2023-02-28T01:19:27;5.20;;;2.20;;
62580;SDS011;48640;48.770;9.148;2023-02-28T01:21:54;5.70;;;2.90;;
62580;SDS011;48640;48.770;9.148;2023-02-28T01:24:22;5.23;;;2.63;;
62580;SDS011;48640;48.770;9.148;2023-02-28T01:26:49;5.90;;;2.40;;
62580;SDS011;48640;48.770;9.148;2023-02-28T01:29:15;5.47;;;2.57;;
62580;SDS011;48640;48.770;9.148;2023-02-28T01:31:42;5.57;;;2.40;;
62580;SDS011;48640;48.770;9.148;2023-02-28T01:34:09;4.73;;;2.60;;
62580;SDS011;48640;48.770;9.148;2023-02-28T01:36:36;9.93;;;3.37;;
62580;SDS011;48640;48.770;9.148;2023-02-28T01:39:03;6.87;;;3.13;;
62580;SDS011;48640;48.770;9.148;2023-02-28T01:41:33;6.40;;;3.00;;
62580;SDS011;48640;48.770;9.148;2023-02-28T01:46:29;5.83;;;3.03;;
62580;SDS011;48640;48.770;9.148;2023-02-28T01:48:58;7.60;;;3.80;;
62580;SDS011;48640;48.770;9.148;2023-02-28T01:51:30;6.03;;;2.83;;
62580;SDS011;48640;48.770;9.148;2023-02-28T01:54:01;4.50;;;2.47;;
62580;SDS011;48640;48.770;9.148;2023-02-28T01:56:33;5.27;;;3.17;;
62580;SDS011;48640;48.770;9.148;2023-02-28T01:59:02;5.57;;;3.00;;
62580;SDS011;48640;48.770;9.148;2023-02-28T02:01:30;5.00;;;3.20;;
62580;SDS011;48640;48.770;9.148;2023-02-28T02:03:58;4.93;;;2.73;;
62580;SDS011;48640;48.770;9.148;2023-02-28T02:06:28;4.70;;;2.90;;
62580;SDS011;48640;48.770;9.148;2023-02-28T02:09:00;5.93;;;2.83;;
62580;SDS011;48640;48.770;9.148;2023-02-28T02:11:27;5.87;;;2.97;;
62580;SDS011;48640;48.770;9.148;2023-02-28T02:14:03;8.50;;;3.17;;
62580;SDS011;48640;48.770;9.148;2023-02-28T02:16:46;6.57;;;3.10;;
62580;SDS011;48640;48.770;9.148;2023-02-28T02:25:19;5.32;;;3.10;;
62580;SDS011;48640;48.770;9.148;2023-02-28T02:31:08;6.83;;;3.70;;
62580;SDS011;48640;48.770;9.148;2023-02-28T02:34:06;4.53;;;2.97;;
62580;SDS011;48640;48.770;9.148;2023-02-28T02:36:49;12.07;;;4.03;;
62580;SDS011;48640;48.770;9.148;2023-02-28T02:39:21;5.77;;;3.13;;
62580;SDS011;48640;48.770;9.148;2023-02-28T02:41:55;6.20;;;3.00;;
62580;SDS011;48640;48.770;9.148;2023-02-28T02:44:26;6.90;;;3.13;;
62580;SDS011;48640;48.770;9.148;2023-02-28T02:46:58;10.97;;;3.60;;
62580;SDS011;48640;48.770;9.148;2023-02-28T02:49:32;6.47;;;3.50;;
62580;SDS011;48640;48.770;9.148;2023-02-28T02:52:00;5.30;;;3.73;;
62580;SDS011;48640;48.770;9.148;2023-02-28T02:54:30;6.47;;;3.90;;
62580;SDS011;48640;48.770;9.148;2023-02-28T02:57:02;7.07;;;3.80;;
62580;SDS011;48640;48.770;9.148;2023-02-28T02:59:33;8.83;;;3.87;;
62580;SDS011;48640;48.770;9.148;2023-02-28T03:02:02;4.80;;;3.30;;
62580;SDS011;48640;48.770;9.148;2023-02-28T03:04:35;7.97;;;4.03;;
62580;SDS011;48640;48.770;9.148;2023-02-28T03:07:08;6.57;;;3.60;;
62580;SDS011;48640;48.770;9.148;2023-02-28T03:09:35;8.40;;;4.07;;
62580;SDS011;48640;48.770;9.148;2023-02-28T03:12:02;7.10;;;3.73;;
62580;SDS011;48640;48.770;9.148;2023-02-28T03:17:18;6.13;;;3.50;;
62580;SDS011;48640;48.770;9.148;2023-02-28T03:20:01;8.57;;;3.77;;
62580;SDS011;48640;48.770;9.148;2023-02-28T03:22:45;7.70;;;3.87;;
62580;SDS011;48640;48.770;9.148;2023-02-28T03:25:18;7.13;;;3.60;;
62580;SDS011;48640;48.770;9.148;2023-02-28T03:27:55;5.57;;;3.53;;
62580;SDS011;48640;48.770;9.148;2023-02-28T03:30:28;6.60;;;3.33;;
62580;SDS011;48640;48.770;9.148;2023-02-28T03:33:00;6.53;;;3.72;;
62580;SDS011;48640;48.770;9.148;2023-02-28T03:35:34;6.87;;;3.47;;
62580;SDS011;48640;48.770;9.148;2023-02-28T03:38:05;6.50;;;3.50;;
62580;SDS011;48640;48.770;9.148;2023-02-28T03:40:39;5.68;;;3.75;;
62580;SDS011;48640;48.770;9.148;2023-02-28T03:43:12;5.73;;;3.77;;
62580;SDS011;48640;48.770;9.148;2023-02-28T03:45:44;6.43;;;3.90;;
62580;SDS011;48640;48.770;9.148;2023-02-28T03:48:13;6.10;;;4.13;;
62580;SDS011;48640;48.770;9.148;2023-02-28T03:50:47;6.63;;;3.97;;
62580;SDS011;48640;48.770;9.148;2023-02-28T03:53:20;6.93;;;4.50;;
62580;SDS011;48640;48.770;9.148;2023-02-28T03:55:52;9.33;;;4.27;;
62580;SDS011;48640;48.770;9.148;2023-02-28T03:58:24;7.97;;;3.97;;
62580;SDS011;48640;48.770;9.148;2023-02-28T04:00:58;7.10;;;4.27;;
62580;SDS011;48640;48.770;9.148;2023-02-28T04:03:33;5.93;;;4.10;;
62580;SDS011;48640;48.770;9.148;2023-02-28T04:06:03;5.93;;;4.17;;
62580;SDS011;48640;48.770;9.148;2023-02-28T04:11:00;6.97;;;4.10;;
62580;SDS011;48640;48.770;9.148;2023-02-28T04:13:31;7.73;;;4.53;;
62580;SDS011;48640;48.770;9.148;2023-02-28T04:15:57;6.83;;;3.53;;
62580;SDS011;48640;48.770;9.148;2023-02-28T04:18:24;8.93;;;4.23;;
62580;SDS011;48640;48.770;9.148;2023-02-28T04:20:51;6.07;;;3.93;;
62580;SDS011;48640;48.770;9.148;2023-02-28T04:23:19;6.67;;;3.70;;
62580;SDS011;48640;48.770;9.148;2023-02-28T04:25:46;7.17;;;3.70;;
62580;SDS011;48640;48.770;9.148;2023-02-28T04:28:12;6.10;;;3.87;;
62580;SDS011;48640;48.770;9.148;2023-02-28T04:30:39;8.90;;;6.00;;
62580;SDS011;48640;48.770;9.148;2023-02-28T04:33:06;6.93;;;3.97;;
62580;SDS011;48640;48.770;9.148;2023-02-28T04:35:33;8.17;;;4.30;;
62580;SDS011;48640;48.770;9.148;2023-02-28T04:37:59;6.47;;;3.57;;
62580;SDS011;48640;48.770;9.148;2023-02-28T04:40:27;7.20;;;3.73;;
62580;SDS011;48640;48.770;9.148;2023-02-28T04:42:54;9.50;;;4.63;;
62580;SDS011;48640;48.770;9.148;2023-02-28T04:45:21;7.60;;;4.80;;
62580;SDS011;48640;48.770;9.148;2023-02-28T04:47:48;8.23;;;4.23;;
62580;SDS011;48640;48.770;9.148;2023-02-28T04:50:14;7.57;;;4.40;;
62580;SDS011;48640;48.770;9.148;2023-02-28T04:52:41;9.00;;;4.60;;
62580;SDS011;48640;48.770;9.148;2023-02-28T04:55:08;7.30;;;4.83;;
62580;SDS011;48640;48.770;9.148;2023-02-28T04:57:37;7.67;;;4.47;;
62580;SDS011;48640;48.770;9.148;2023-02-28T05:00:04;10.03;;;4.73;;
62580;SDS011;48640;48.770;9.148;2023-02-28T05:02:36;6.80;;;4.30;;
62580;SDS011;48640;48.770;9.148;2023-02-28T05:05:03;9.10;;;4.73;;
62580;SDS011;48640;48.770;9.148;2023-02-28T05:07:30;7.67;;;3.77;;
62580;SDS011;48640;48.770;9.148;2023-02-28T05:09:57;6.23;;;4.10;;
62580;SDS011;48640;48.770;9.148;2023-02-28T05:12:24;8.13;;;4.33;;
62580;SDS011;48640;48.770;9.148;2023-02-28T05:14:52;7.73;;;4.50;;
62580;SDS011;48640;48.770;9.148;2023-02-28T05:17:19;7.27;;;4.30;;
62580;SDS011;48640;48.770;9.148;2023-02-28T05:19:45;7.03;;;4.77;;
62580;SDS011;48640;48.770;9.148;2023-02-28T05:22:13;7.70;;;4.50;;
62580;SDS011;48640;48.770;9.148;2023-02-28T05:24:41;7.83;;;4.13;;
62580;SDS011;48640;48.770;9.148;2023-02-28T05:27:08;7.47;;;4.97;;
62580;SDS011;48640;48.770;9.148;2023-02-28T05:29:35;8.70;;;5.87;;
62580;SDS011;48640;48.770;9.148;2023-02-28T05:32:07;7.97;;;4.93;;
62580;SDS011;48640;48.770;9.148;2023-02-28T05:34:36;12.70;;;6.43;;
62580;SDS011;48640;48.770;9.148;2023-02-28T05:37:02;8.57;;;4.73;;
62580;SDS011;48640;48.770;9.148;2023-02-28T05:39:29;7.87;;;4.97;;
62580;SDS011;48640;48.770;9.148;2023-02-28T05:41:56;8.00;;;5.43;;
62580;SDS011;48640;48.770;9.148;2023-02-28T05:44:23;8.47;;;5.00;;
62580;SDS011;48640;48.770;9.148;2023-02-28T05:46:50;7.40;;;4.93;;
62580;SDS011;48640;48.770;9.148;2023-02-28T05:49:18;8.73;;;4.83;;
62580;SDS011;48640;48.770;9.148;2023-02-28T05:51:45;9.30;;;5.07;;
62580;SDS011;48640;48.770;9.148;2023-02-28T05:54:12;7.93;;;4.90;;
62580;SDS011;48640;48.770;9.148;2023-02-28T05:56:38;9.47;;;4.80;;
62580;SDS011;48640;48.770;9.148;2023-02-28T05:59:08;9.15;;;5.53;;
62580;SDS011;48640;48.770;9.148;2023-02-28T06:01:36;8.73;;;5.07;;
62580;SDS011;48640;48.770;9.148;2023-02-28T06:04:05;10.70;;;5.20;;
62580;SDS011;48640;48.770;9.148;2023-02-28T06:06:34;8.23;;;4.63;;
62580;SDS011;48640;48.770;9.148;2023-02-28T06:09:02;8.23;;;5.43;;
62580;SDS011;48640;48.770;9.148;2023-02-28T06:11:29;8.73;;;5.13;;
62580;SDS011;48640;48.770;9.148;2023-02-28T06:13:56;9.63;;;6.07;;
62580;SDS011;48640;48.770;9.148;2023-02-28T06:16:24;9.97;;;5.70;;
62580;SDS011;48640;48.770;9.148;2023-02-28T06:18:51;9.43;;;5.93;;
62580;SDS011;48640;48.770;9.148;2023-02-28T06:21:20;10.20;;;5.40;;
62580;SDS011;48640;48.770;9.148;2023-02-28T06:23:49;10.40;;;6.47;;
62580;SDS011;48640;48.770;9.148;2023-02-28T06:26:16;8.83;;;5.73;;
62580;SDS011;48640;48.770;9.148;2023-02-28T06:28:43;8.83;;;5.13;;
62580;SDS011;48640;48.770;9.148;2023-02-28T06:31:11;9.30;;;5.40;;
62580;SDS011;48640;48.770;9.148;2023-02-28T06:33:39;9.85;;;5.72;;
62580;SDS011;48640;48.770;9.148;2023-02-28T06:36:08;9.03;;;5.50;;
62580;SDS011;48640;48.770;9.148;2023-02-28T06:38:36;9.07;;;4.97;;
62580;SDS011;48640;48.770;9.148;2023-02-28T06:41:05;9.20;;;5.50;;
62580;SDS011;48640;48.770;9.148;2023-02-28T06:43:33;10.27;;;6.33;;
62580;SDS011;48640;48.770;9.148;2023-02-28T06:46:02;11.70;;;6.67;;
62580;SDS011;48640;48.770;9.148;2023-02-28T06:48:30;9.10;;;6.33;;
62580;SDS011;48640;48.770;9.148;2023-02-28T06:51:01;10.37;;;5.90;;
62580;SDS011;48640;48.770;9.148;2023-02-28T06:53:29;9.87;;;5.77;;
62580;SDS011;48640;48.770;9.148;2023-02-28T06:55:56;11.67;;;5.77;;
62580;SDS011;48640;48.770;9.148;2023-02-28T06:58:24;9.73;;;6.00;;
62580;SDS011;48640;48.770;9.148;2023-02-28T07:00:51;10.10;;;5.80;;
62580;SDS011;48640;48.770;9.148;2023-02-28T07:03:19;8.23;;;5.70;;
62580;SDS011;48640;48.770;9.148;2023-02-28T07:05:46;12.43;;;6.30;;
62580;SDS011;48640;48.770;9.148;2023-02-28T07:08:13;9.07;;;5.50;;
62580;SDS011;48640;48.770;9.148;2023-02-28T07:10:40;10.30;;;5.60;;
62580;SDS011;48640;48.770;9.148;2023-02-28T07:13:07;10.17;;;6.13;;
62580;SDS011;48640;48.770;9.148;2023-02-28T07:15:36;9.77;;;5.70;;
62580;SDS011;48640;48.770;9.148;2023-02-28T07:18:03;9.13;;;5.87;;
62580;SDS011;48640;48.770;9.148;2023-02-28T07:20:30;9.30;;;6.60;;
62580;SDS011;48640;48.770;9.148;2023-02-28T07:22:57;8.80;;;6.00;;
62580;SDS011;48640;48.770;9.148;2023-02-28T07:25:25;10.97;;;5.40;;
62580;SDS011;48640;48.770;9.148;2023-02-28T07:27:53;7.90;;;5.07;;
62580;SDS011;48640;48.770;9.148;2023-02-28T07:30:21;7.83;;;5.60;;
62580;SDS011;48640;48.770;9.148;2023-02-28T07:32:49;10.93;;;5.73;;
62580;SDS011;48640;48.770;9.148;2023-02-28T07:35:15;11.43;;;6.10;;
62580;SDS011;48640;48.770;9.148;2023-02-28T07:37:42;9.07;;;5.50;;
62580;SDS011;48640;48.770;9.148;2023-02-28T07:40:10;12.33;;;7.23;;
62580;SDS011;48640;48.770;9.148;2023-02-28T07:42:37;13.27;;;6.00;;
62580;SDS011;48640;48.770;9.148;2023-02-28T07:45:05;10.47;;;6.97;;
62580;SDS011;48640;48.770;9.148;2023-02-28T07:47:36;11.23;;;6.17;;
62580;SDS011;48640;48.770;9.148;2023-02-28T07:50:04;10.50;;;6.37;;
62580;SDS011;48640;48.770;9.148;2023-02-28T07:52:32;10.03;;;6.03;;
62580;SDS011;48640;48.770;9.148;2023-02-28T07:54:58;9.97;;;6.83;;
62580;SDS011;48640;48.770;9.148;2023-02-28T07:57:25;14.67;;;7.10;;
62580;SDS011;48640;48.770;9.148;2023-02-28T07:59:52;10.03;;;5.67;;
62580;SDS011;48640;48.770;9.148;2023-02-28T08:02:19;11.63;;;7.37;;
62580;SDS011;48640;48.770;9.148;2023-02-28T08:04:45;14.70;;;6.73;;
62580;SDS011;48640;48.770;9.148;2023-02-28T08:07:14;13.77;;;7.37;;
62580;SDS011;48640;48.770;9.148;2023-02-28T08:09:41;11.60;;;6.87;;
62580;SDS011;48640;48.770;9.148;2023-02-28T08:12:09;10.80;;;7.00;;
62580;SDS011;48640;48.770;9.148;2023-02-28T08:14:37;10.87;;;7.23;;
62580;SDS011;48640;48.770;9.148;2023-02-28T08:17:04;12.63;;;6.87;;
62580;SDS011;48640;48.770;9.148;2023-02-28T08:19:31;10.03;;;6.53;;
62580;SDS011;48640;48.770;9.148;2023-02-28T08:21:58;11.77;;;6.80;;
62580;SDS011;48640;48.770;9.148;2023-02-28T08:24:27;12.27;;;7.47;;
62580;SDS011;48640;48.770;9.148;2023-02-28T08:26:53;11.17;;;6.70;;
62580;SDS011;48640;48.770;9.148;2023-02-28T08:29:20;10.90;;;6.70;;
62580;SDS011;48640;48.770;9.148;2023-02-28T08:31:47;12.30;;;7.13;;
62580;SDS011;48640;48.770;9.148;2023-02-28T08:34:14;10.70;;;6.67;;
62580;SDS011;48640;48.770;9.148;2023-02-28T08:36:42;12.07;;;7.03;;
62580;SDS011;48640;48.770;9.148;2023-02-28T08:39:10;11.57;;;7.17;;
62580;SDS011;48640;48.770;9.148;2023-02-28T08:41:38;12.30;;;6.70;;
62580;SDS011;48640;48.770;9.148;2023-02-28T08:44:06;13.07;;;7.20;;
62580;SDS011;48640;48.770;9.148;2023-02-28T08:46:33;12.27;;;7.67;;
62580;SDS011;48640;48.770;9.148;2023-02-28T08:48:59;11.77;;;7.20;;
62580;SDS011;48640;48.770;9.148;2023-02-28T08:51:27;12.87;;;7.13;;
62580;SDS011;48640;48.770;9.148;2023-02-28T08:53:55;11.77;;;7.17;;
62580;SDS011;48640;48.770;9.148;2023-02-28T08:56:24;11.95;;;7.80;;
62580;SDS011;48640;48.770;9.148;2023-02-28T08:58:54;13.07;;;8.17;;
62580;SDS011;48640;48.770;9.148;2023-02-28T09:01:23;14.70;;;8.20;;
62580;SDS011;48640;48.770;9.148;2023-02-28T09:03:53;12.10;;;6.30;;
62580;SDS011;48640;48.770;9.148;2023-02-28T09:06:21;11.67;;;6.90;;
62580;SDS011;48640;48.770;9.148;2023-02-28T09:08:49;11.17;;;7.57;;
62580;SDS011;48640;48.770;9.148;2023-02-28T09:11:16;12.07;;;6.43;;
62580;SDS011;48640;48.770;9.148;2023-02-28T09:13:44;12.07;;;6.72;;
62580;SDS011;48640;48.770;9.148;2023-02-28T09:16:13;13.88;;;7.30;;
62580;SDS011;48640;48.770;9.148;2023-02-28T09:18:41;13.25;;;7.93;;
62580;SDS011;48640;48.770;9.148;2023-02-28T09:21:09;12.65;;;8.35;;
62580;SDS011;48640;48.770;9.148;2023-02-28T09:23:39;13.52;;;7.53;;
62580;SDS011;48640;48.770;9.148;2023-02-28T09:26:06;12.95;;;7.50;;
62580;SDS011;48640;48.770;9.148;2023-02-28T09:28:39;13.50;;;6.87;;
62580;SDS011;48640;48.770;9.148;2023-02-28T09:31:06;13.07;;;7.03;;
62580;SDS011;48640;48.770;9.148;2023-02-28T09:33:39;12.20;;;7.97;;
62580;SDS011;48640;48.770;9.148;2023-02-28T09:36:07;12.80;;;8.77;;
62580;SDS011;48640;48.770;9.148;2023-02-28T09:38:34;11.00;;;7.65;;
62580;SDS011;48640;48.770;9.148;2023-02-28T09:41:03;13.38;;;7.38;;
62580;SDS011;48640;48.770;9.148;2023-02-28T09:43:37;13.43;;;7.72;;
62580;SDS011;48640;48.770;9.148;2023-02-28T09:46:08;12.10;;;6.95;;
62580;SDS011;48640;48.770;9.148;2023-02-28T09:48:47;13.32;;;7.50;;
62580;SDS011;48640;48.770;9.148;2023-02-28T09:51:16;13.93;;;8.43;;
62580;SDS011;48640;48.770;9.148;2023-02-28T09:53:52;12.43;;;8.38;;
62580;SDS011;48640;48.770;9.148;2023-02-28T09:56:20;13.03;;;7.90;;
62580;SDS011;48640;48.770;9.148;2023-02-28T09:58:53;11.33;;;6.70;;
62580;SDS011;48640;48.770;9.148;2023-02-28T10:01:24;14.15;;;7.80;;
62580;SDS011;48640;48.770;9.148;2023-02-28T10:03:59;12.68;;;7.53;;
62580;SDS011;48640;48.770;9.148;2023-02-28T10:06:31;13.05;;;7.78;;
62580;SDS011;48640;48.770;9.148;2023-02-28T10:09:03;12.53;;;7.90;;
62580;SDS011;48640;48.770;9.148;2023-02-28T10:11:35;13.70;;;8.43;;
62580;SDS011;48640;48.770;9.148;2023-02-28T10:16:37;11.88;;;7.55;;
62580;SDS011;48640;48.770;9.148;2023-02-28T10:19:13;13.20;;;8.95;;
62580;SDS011;48640;48.770;9.148;2023-02-28T10:21:46;16.15;;;8.25;;
62580;SDS011;48640;48.770;9.148;2023-02-28T10:24:19;13.30;;;8.13;;
62580;SDS011;48640;48.770;9.148;2023-02-28T10:26:49;16.55;;;7.82;;
62580;SDS011;48640;48.770;9.148;2023-02-28T10:29:19;13.73;;;7.75;;
62580;SDS011;48640;48.770;9.148;2023-02-28T10:31:46;11.50;;;7.85;;
62580;SDS011;48640;48.770;9.148;2023-02-28T10:34:14;13.00;;;8.00;;
62580;SDS011;48640;48.770;9.148;2023-02-28T10:36:41;12.27;;;7.40;;
62580;SDS011;48640;48.770;9.148;2023-02-28T10:42:00;15.53;;;8.43;;
62580;SDS011;48640;48.770;9.148;2023-02-28T10:44:27;13.93;;;7.70;;
62580;SDS011;48640;48.770;9.148;2023-02-28T10:46:53;12.65;;;8.43;;
62580;SDS011;48640;48.770;9.148;2023-02-28T10:49:23;13.93;;;8.25;;
62580;SDS011;48640;48.770;9.148;2023-02-28T10:51:53;12.63;;;8.48;;
62580;SDS011;48640;48.770;9.148;2023-02-28T10:54:22;14.93;;;8.57;;
62580;SDS011;48640;48.770;9.148;2023-02-28T10:57:06;14.70;;;8.57;;
62580;SDS011;48640;48.770;9.148;2023-02-28T10:59:35;13.25;;;7.30;;
62580;SDS011;48640;48.770;9.148;2023-02-28T11:02:02;13.55;;;8.45;;
62580;SDS011;48640;48.770;9.148;2023-02-28T11:04:58;13.70;;;7.78;;
62580;SDS011;48640;48.770;9.148;2023-02-28T11:07:26;18.50;;;7.95;;
62580;SDS011;48640;48.770;9.148;2023-02-28T11:09:54;14.07;;;8.52;;
62580;SDS011;48640;48.770;9.148;2023-02-28T11:12:23;11.70;;;7.78;;
62580;SDS011;48640;48.770;9.148;2023-02-28T11:14:53;14.23;;;8.43;;
62580;SDS011;48640;48.770;9.148;2023-02-28T11:17:23;13.35;;;8.25;;
62580;SDS011;48640;48.770;9.148;2023-02-28T11:19:53;13.20;;;7.80;;
62580;SDS011;48640;48.770;9.148;2023-02-28T11:22:24;12.63;;;8.10;;
62580;SDS011;48640;48.770;9.148;2023-02-28T11:24:54;11.50;;;7.97;;
62580;SDS011;48640;48.770;9.148;2023-02-28T11:27:40;10.63;;;7.05;;
62580;SDS011;48640;48.770;9.148;2023-02-28T11:32:58;11.95;;;8.52;;
62580;SDS011;48640;48.770;9.148;2023-02-28T11:35:28;12.38;;;8.00;;
62580;SDS011;48640;48.770;9.148;2023-02-28T11:37:58;12.85;;;8.23;;
62580;SDS011;48640;48.770;9.148;2023-02-28T11:40:28;15.23;;;9.75;;
62580;SDS011;48640;48.770;9.148;2023-02-28T11:43:04;11.75;;;7.97;;
62580;SDS011;48640;48.770;9.148;2023-02-28T11:45:42;11.93;;;8.65;;
62580;SDS011;48640;48.770;9.148;2023-02-28T11:48:15;11.27;;;8.05;;
62580;SDS011;48640;48.770;9.148;2023-02-28T11:50:51;12.80;;;8.68;;
62580;SDS011;48640;48.770;9.148;2023-02-28T11:53:35;13.07;;;8.20;;
62580;SDS011;48640;48.770;9.148;2023-02-28T11:56:18;12.85;;;8.13;;
62580;SDS011;48640;48.770;9.148;2023-02-28T11:58:54;13.77;;;8.32;;
62580;SDS011;48640;48.770;9.148;2023-02-28T12:01:37;12.60;;;7.53;;
62580;SDS011;48640;48.770;9.148;2023-02-28T12:04:15;11.13;;;7.15;;
62580;SDS011;48640;48.770;9.148;2023-02-28T12:06:52;11.80;;;8.68;;
62580;SDS011;48640;48.770;9.148;2023-02-28T12:09:37;11.93;;;7.90;;
62580;SDS011;48640;48.770;9.148;2023-02-28T12:12:15;12.40;;;7.72;;
62580;SDS011;48640;48.770;9.148;2023-02-28T12:14:59;11.90;;;7.90;;
62580;SDS011;48640;48.770;9.148;2023-02-28T12:17:55;12.50;;;8.07;;
62580;SDS011;48640;48.770;9.148;2023-02-28T12:20:37;14.15;;;7.93;;
62580;SDS011;48640;48.770;9.148;2023-02-28T12:23:21;14.77;;;9.15;;
62580;SDS011;48640;48.770;9.148;2023-02-28T12:26:13;11.48;;;8.43;;
62580;SDS011;48640;48.770;9.148;2023-02-28T12:28:46;10.30;;;7.82;;
62580;SDS011;48640;48.770;9.148;2023-02-28T12:31:16;11.98;;;7.32;;
62580;SDS011;48640;48.770;9.148;2023-02-28T12:33:48;11.50;;;7.85;;
62580;SDS011;48640;48.770;9.148;2023-02-28T12:36:19;10.43;;;7.03;;
62580;SDS011;48640;48.770;9.148;2023-02-28T12:38:49;12.77;;;7.72;;
62580;SDS011;48640;48.770;9.148;2023-02-28T12:41:25;11.73;;;8.68;;
62580;SDS011;48640;48.770;9.148;2023-02-28T12:43:58;12.02;;;8.00;;
62580;SDS011;48640;48.770;9.148;2023-02-28T12:46:29;11.27;;;7.07;;
62580;SDS011;48640;48.770;9.148;2023-02-28T12:51:28;9.40;;;7.28;;
62580;SDS011;48640;48.770;9.148;2023-02-28T12:54:00;13.30;;;8.57;;
62580;SDS011;48640;48.770;9.148;2023-02-28T12:56:36;11.02;;;7.82;;
62580;SDS011;48640;48.770;9.148;2023-02-28T12:59:10;11.20;;;7.75;;
62580;SDS011;48640;48.770;9.148;2023-02-28T13:01:56;13.85;;;8.95;;
62580;SDS011;48640;48.770;9.148;2023-02-28T13:04:42;12.10;;;8.15;;
62580;SDS011;48640;48.770;9.148;2023-02-28T13:07:43;12.10;;;7.60;;
62580;SDS011;48640;48.770;9.148;2023-02-28T13:10:24;10.77;;;7.18;;
62580;SDS011;48640;48.770;9.148;2023-02-28T13:13:04;12.52;;;8.73;;
62580;SDS011;48640;48.770;9.148;2023-02-28T13:15:31;11.77;;;7.50;;
62580;SDS011;48640;48.770;9.148;2023-02-28T13:18:03;13.05;;;8.27;;
62580;SDS011;48640;48.770;9.148;2023-02-28T13:20:32;10.75;;;7.85;;
62580;SDS011;48640;48.770;9.148;2023-02-28T13:23:02;10.65;;;7.72;;
62580;SDS011;48640;48.770;9.148;2023-02-28T13:31:33;10.15;;;7.65;;
62580;SDS011;48640;48.770;9.148;2023-02-28T13:34:40;12.18;;;8.23;;
62580;SDS011;48640;48.770;9.148;2023-02-28T13:42:54;11.50;;;8.07;;
62580;SDS011;48640;48.770;9.148;2023-02-28T13:45:22;12.05;;;8.10;;
62580;SDS011;48640;48.770;9.148;2023-02-28T13:47:56;13.75;;;9.00;;
62580;SDS011;48640;48.770;9.148;2023-02-28T13:50:32;12.02;;;9.95;;
62580;SDS011;48640;48.770;9.148;2023-02-28T13:55:58;12.05;;;8.07;;
62580;SDS011;48640;48.770;9.148;2023-02-28T13:58:35;14.00;;;8.93;;
62580;SDS011;48640;48.770;9.148;2023-02-28T14:01:15;11.02;;;8.00;;
62580;SDS011;48640;48.770;9.148;2023-02-28T14:04:14;11.38;;;6.90;;
62580;SDS011;48640;48.770;9.148;2023-02-28T14:07:04;9.98;;;6.97;;
62580;SDS011;48640;48.770;9.148;2023-02-28T14:09:33;10.68;;;7.75;;
62580;SDS011;48640;48.770;9.148;2023-02-28T14:15:02;9.65;;;7.20;;
62580;SDS011;48640;48.770;9.148;2023-02-28T14:17:30;9.95;;;6.60;;
62580;SDS011;48640;48.770;9.148;2023-02-28T14:19:58;10.98;;;7.45;;
62580;SDS011;48640;48.770;9.148;2023-02-28T14:22:42;9.07;;;6.88;;
62580;SDS011;48640;48.770;9.148;2023-02-28T14:25:22;11.23;;;7.05;;
62580;SDS011;48640;48.770;9.148;2023-02-28T14:27:58;10.27;;;7.10;;
62580;SDS011;48640;48.770;9.148;2023-02-28T14:30:51;10.48;;;7.28;;
62580;SDS011;48640;48.770;9.148;2023-02-28T14:33:25;10.80;;;7.10;;
62580;SDS011;48640;48.770;9.148;2023-02-28T14:38:47;11.55;;;7.93;;
62580;SDS011;48640;48.770;9.148;2023-02-28T14:41:22;11.13;;;7.72;;
62580;SDS011;48640;48.770;9.148;2023-02-28T14:43:51;10.63;;;6.85;;
62580;SDS011;48640;48.770;9.148;2023-02-28T14:46:21;12.05;;;7.93;;
62580;SDS011;48640;48.770;9.148;2023-02-28T14:48:52;10.32;;;6.95;;
62580;SDS011;48640;48.770;9.148;2023-02-28T14:51:20;13.07;;;7.13;;
62580;SDS011;48640;48.770;9.148;2023-02-28T14:53:50;10.32;;;6.97;;
62580;SDS011;48640;48.770;9.148;2023-02-28T14:56:22;10.00;;;7.20;;
62580;SDS011;48640;48.770;9.148;2023-02-28T14:58:52;12.50;;;7.85;;
62580;SDS011;48640;48.770;9.148;2023-02-28T15:01:21;10.65;;;7.43;;
62580;SDS011;48640;48.770;9.148;2023-02-28T15:03:56;11.43;;;7.50;;
62580;SDS011;48640;48.770;9.148;2023-02-28T15:06:24;11.23;;;6.85;;
62580;SDS011;48640;48.770;9.148;2023-02-28T15:11:55;10.90;;;7.25;;
62580;SDS011;48640;48.770;9.148;2023-02-28T15:14:22;10.73;;;7.40;;
62580;SDS011;48640;48.770;9.148;2023-02-28T15:16:50;12.18;;;7.28;;
62580;SDS011;48640;48.770;9.148;2023-02-28T15:19:22;11.55;;;7.97;;
62580;SDS011;48640;48.770;9.148;2023-02-28T15:21:51;9.90;;;6.72;;
62580;SDS011;48640;48.770;9.148;2023-02-28T15:24:24;11.50;;;7.68;;
62580;SDS011;48640;48.770;9.148;2023-02-28T15:26:59;12.35;;;7.10;;
62580;SDS011;48640;48.770;9.148;2023-02-28T15:29:30;11.88;;;7.68;;
62580;SDS011;48640;48.770;9.148;2023-02-28T15:32:26;12.43;;;7.85;;
62580;SDS011;48640;48.770;9.148;2023-02-28T15:34:54;11.35;;;7.93;;
62580;SDS011;48640;48.770;9.148;2023-02-28T15:37:26;12.13;;;7.53;;
62580;SDS011;48640;48.770;9.148;2023-02-28T15:39:55;12.23;;;8.23;;
62580;SDS011;48640;48.770;9.148;2023-02-28T15:42:27;11.40;;;7.50;;
62580;SDS011;48640;48.770;9.148;2023-02-28T15:44:56;11.18;;;7.38;;
62580;SDS011;48640;48.770;9.148;2023-02-28T15:47:25;12.30;;;7.90;;
62580;SDS011;48640;48.770;9.148;2023-02-28T15:49:54;10.35;;;7.57;;
62580;SDS011;48640;48.770;9.148;2023-02-28T15:52:34;12.68;;;8.43;;